sensor_id;sensor_type;location;lat;lon;timestamp;temperature;humidity
29813;DHT22;16707;48.106;11.548;2023-03-02T00:01:46;0.40;99.90
29813;DHT22;16707;48.106;11.548;2023-03-02T00:04:16;0.60;99.90
29813;DHT22;16707;48.106;11.548;2023-03-02T00:06:45;0.40;99.90
29813;DHT22;16707;48.106;11.548;2023-03-02T00:09:21;0.30;99.90
29813;DHT22;16707;48.106;11.548;2023-03-02T00:11:50;0.50;99.90
29813;DHT22;16707;48.106;11.548;2023-03-02T00:14:20;0.60;99.90
29813;DHT22;16707;48.106;11.548;2023-03-02T00:16:47;0.60;99.90
29813;DHT22;16707;48.106;11.548;2023-03-02T00:19:20;0.60;99.90
29813;DHT22;16707;48.106;11.548;2023-03-02T00:21:49;0.40;99.90
29813;DHT22;16707;48.106;11.548;2023-03-02T00:24:17;0.50;99.90
29813;DHT22;16707;48.106;11.548;2023-03-02T00:26:51;0.50;99.90
29813;DHT22;16707;48.106;11.548;2023-03-02T00:29:20;0.40;99.90
29813;DHT22;16707;48.106;11.548;2023-03-02T00:31:49;0.30;99.90
29813;DHT22;16707;48.106;11.548;2023-03-02T00:34:22;0.10;99.90
29813;DHT22;16707;48.106;11.548;2023-03-02T00:36:49;0.10;99.90
29813;DHT22;16707;48.106;11.548;2023-03-02T00:39:17;0.00;99.90
29813;DHT22;16707;48.106;11.548;2023-03-02T00:41:48;0.00;99.90
29813;DHT22;16707;48.106;11.548;2023-03-02T00:44:19;-0.10;99.90
29813;DHT22;16707;48.106;11.548;2023-03-02T00:46:46;-0.20;99.90
29813;DHT22;16707;48.106;11.548;2023-03-02T00:49:13;-0.20;99.90
29813;DHT22;16707;48.106;11.548;2023-03-02T00:51:43;-0.30;99.90
29813;DHT22;16707;48.106;11.548;2023-03-02T00:54:12;-0.40;99.90
29813;DHT22;16707;48.106;11.548;2023-03-02T00:56:42;-0.40;99.90
29813;DHT22;16707;48.106;11.548;2023-03-02T00:59:11;-0.50;99.90
29813;DHT22;16707;48.106;11.548;2023-03-02T01:01:52;-0.40;99.90
29813;DHT22;16707;48.106;11.548;2023-03-02T01:04:23;-0.30;99.90
29813;DHT22;16707;48.106;11.548;2023-03-02T01:06:59;0.10;99.90
29813;DHT22;16707;48.106;11.548;2023-03-02T01:09:29;0.20;99.90
29813;DHT22;16707;48.106;11.548;2023-03-02T01:11:57;0.30;99.90
29813;DHT22;16707;48.106;11.548;2023-03-02T01:14:28;0.30;99.90
29813;DHT22;16707;48.106;11.548;2023-03-02T01:16:56;0.40;99.90
29813;DHT22;16707;48.106;11.548;2023-03-02T01:19:23;0.40;99.90
29813;DHT22;16707;48.106;11.548;2023-03-02T01:21:51;0.30;99.90
29813;DHT22;16707;48.106;11.548;2023-03-02T01:24:18;0.30;99.90
29813;DHT22;16707;48.106;11.548;2023-03-02T01:26:48;0.20;99.90
29813;DHT22;16707;48.106;11.548;2023-03-02T01:29:15;0.30;99.90
29813;DHT22;16707;48.106;11.548;2023-03-02T01:31:45;0.20;99.90
29813;DHT22;16707;48.106;11.548;2023-03-02T01:34:13;0.20;99.90
29813;DHT22;16707;48.106;11.548;2023-03-02T01:36:40;0.10;99.90
29813;DHT22;16707;48.106;11.548;2023-03-02T01:39:10;0.20;99.90
29813;DHT22;16707;48.106;11.548;2023-03-02T01:41:40;0.20;99.90
29813;DHT22;16707;48.106;11.548;2023-03-02T01:44:38;0.10;99.90
29813;DHT22;16707;48.106;11.548;2023-03-02T01:47:12;0.10;99.90
29813;DHT22;16707;48.106;11.548;2023-03-02T01:49:44;0.00;99.90
29813;DHT22;16707;48.106;11.548;2023-03-02T01:52:12;0.10;99.90
29813;DHT22;16707;48.106;11.548;2023-03-02T01:54:41;0.30;99.90
29813;DHT22;16707;48.106;11.548;2023-03-02T01:57:09;0.30;99.90
29813;DHT22;16707;48.106;11.548;2023-03-02T01:59:38;0.30;99.90
29813;DHT22;16707;48.106;11.548;2023-03-02T02:02:11;0.20;99.90
29813;DHT22;16707;48.106;11.548;2023-03-02T02:04:44;0.00;99.90
29813;DHT22;16707;48.106;11.548;2023-03-02T02:07:12;0.10;99.90
29813;DHT22;16707;48.106;11.548;2023-03-02T02:09:42;0.20;99.90
29813;DHT22;16707;48.106;11.548;2023-03-02T02:12:17;0.20;99.90
29813;DHT22;16707;48.106;11.548;2023-03-02T02:14:45;0.10;99.90
29813;DHT22;16707;48.106;11.548;2023-03-02T02:17:15;-0.10;99.90
29813;DHT22;16707;48.106;11.548;2023-03-02T02:20:05;-0.10;99.90
29813;DHT22;16707;48.106;11.548;2023-03-02T02:22:48;0.00;99.90
29813;DHT22;16707;48.106;11.548;2023-03-02T02:25:23;-0.10;99.90
29813;DHT22;16707;48.106;11.548;2023-03-02T02:27:53;-0.20;99.90
29813;DHT22;16707;48.106;11.548;2023-03-02T02:30:24;-0.30;99.90
29813;DHT22;16707;48.106;11.548;2023-03-02T02:32:52;-0.30;99.90
29813;DHT22;16707;48.106;11.548;2023-03-02T02:35:23;-0.30;99.90
29813;DHT22;16707;48.106;11.548;2023-03-02T02:38:00;-0.40;99.90
29813;DHT22;16707;48.106;11.548;2023-03-02T02:40:41;-0.40;99.90
29813;DHT22;16707;48.106;11.548;2023-03-02T02:43:13;-0.40;99.90
29813;DHT22;16707;48.106;11.548;2023-03-02T02:45:45;-0.50;99.90
29813;DHT22;16707;48.106;11.548;2023-03-02T02:48:18;-0.40;99.90
29813;DHT22;16707;48.106;11.548;2023-03-02T02:50:50;-0.50;99.90
29813;DHT22;16707;48.106;11.548;2023-03-02T02:53:34;-0.40;99.90
29813;DHT22;16707;48.106;11.548;2023-03-02T02:56:08;-0.50;99.90
29813;DHT22;16707;48.106;11.548;2023-03-02T02:58:41;-0.50;99.90
29813;DHT22;16707;48.106;11.548;2023-03-02T03:01:11;-0.50;99.90
29813;DHT22;16707;48.106;11.548;2023-03-02T03:03:47;-0.40;99.90
29813;DHT22;16707;48.106;11.548;2023-03-02T03:06:17;-0.30;99.90
29813;DHT22;16707;48.106;11.548;2023-03-02T03:08:51;-0.20;99.90
29813;DHT22;16707;48.106;11.548;2023-03-02T03:11:22;-0.30;99.90
29813;DHT22;16707;48.106;11.548;2023-03-02T03:14:02;-0.20;99.90
29813;DHT22;16707;48.106;11.548;2023-03-02T03:16:34;-0.30;99.90
29813;DHT22;16707;48.106;11.548;2023-03-02T03:19:05;-0.40;99.90
29813;DHT22;16707;48.106;11.548;2023-03-02T03:21:39;-0.40;99.90
29813;DHT22;16707;48.106;11.548;2023-03-02T03:24:06;-0.50;99.90
29813;DHT22;16707;48.106;11.548;2023-03-02T03:26:39;-0.50;99.90
29813;DHT22;16707;48.106;11.548;2023-03-02T03:29:08;-0.50;99.90
29813;DHT22;16707;48.106;11.548;2023-03-02T03:31:35;-0.40;99.90
29813;DHT22;16707;48.106;11.548;2023-03-02T03:34:03;-0.40;99.90
29813;DHT22;16707;48.106;11.548;2023-03-02T03:36:33;-0.50;99.90
29813;DHT22;16707;48.106;11.548;2023-03-02T03:39:04;-0.50;99.90
29813;DHT22;16707;48.106;11.548;2023-03-02T03:41:32;-0.50;99.90
29813;DHT22;16707;48.106;11.548;2023-03-02T03:44:02;-0.50;99.90
29813;DHT22;16707;48.106;11.548;2023-03-02T03:46:34;-0.50;99.90
29813;DHT22;16707;48.106;11.548;2023-03-02T03:49:01;-0.60;99.90
29813;DHT22;16707;48.106;11.548;2023-03-02T03:51:32;-0.60;99.90
29813;DHT22;16707;48.106;11.548;2023-03-02T03:54:03;-0.60;99.90
29813;DHT22;16707;48.106;11.548;2023-03-02T03:56:34;-0.70;99.90
29813;DHT22;16707;48.106;11.548;2023-03-02T03:59:05;-0.80;99.90
29813;DHT22;16707;48.106;11.548;2023-03-02T04:01:35;-0.70;99.90
29813;DHT22;16707;48.106;11.548;2023-03-02T04:04:04;-0.60;99.90
29813;DHT22;16707;48.106;11.548;2023-03-02T04:06:32;-0.50;99.90
29813;DHT22;16707;48.106;11.548;2023-03-02T04:09:03;-0.40;99.90
29813;DHT22;16707;48.106;11.548;2023-03-02T04:11:37;-0.40;99.90
29813;DHT22;16707;48.106;11.548;2023-03-02T04:14:09;-0.40;99.90
29813;DHT22;16707;48.106;11.548;2023-03-02T04:16:39;-0.40;99.90
29813;DHT22;16707;48.106;11.548;2023-03-02T04:19:07;-0.50;99.90
29813;DHT22;16707;48.106;11.548;2023-03-02T04:21:35;-0.60;99.90
29813;DHT22;16707;48.106;11.548;2023-03-02T04:24:02;-0.70;99.90
29813;DHT22;16707;48.106;11.548;2023-03-02T04:26:29;-0.70;99.90
29813;DHT22;16707;48.106;11.548;2023-03-02T04:28:57;-0.70;99.90
29813;DHT22;16707;48.106;11.548;2023-03-02T04:31:26;-0.80;99.90
29813;DHT22;16707;48.106;11.548;2023-03-02T04:33:55;-0.90;99.90
29813;DHT22;16707;48.106;11.548;2023-03-02T04:36:26;-1.00;99.90
29813;DHT22;16707;48.106;11.548;2023-03-02T04:38:55;-1.00;99.90
29813;DHT22;16707;48.106;11.548;2023-03-02T04:41:31;-1.00;99.90
29813;DHT22;16707;48.106;11.548;2023-03-02T04:43:58;-1.10;99.90
29813;DHT22;16707;48.106;11.548;2023-03-02T04:46:31;-1.10;99.90
29813;DHT22;16707;48.106;11.548;2023-03-02T04:49:03;-1.10;99.90
29813;DHT22;16707;48.106;11.548;2023-03-02T04:51:33;-1.20;99.90
29813;DHT22;16707;48.106;11.548;2023-03-02T04:54:04;-1.20;99.90
29813;DHT22;16707;48.106;11.548;2023-03-02T04:56:32;-1.20;99.90
29813;DHT22;16707;48.106;11.548;2023-03-02T04:58:59;-1.20;99.90
29813;DHT22;16707;48.106;11.548;2023-03-02T05:01:26;-1.30;99.90
29813;DHT22;16707;48.106;11.548;2023-03-02T05:03:54;-1.30;99.90
29813;DHT22;16707;48.106;11.548;2023-03-02T05:06:23;-1.30;99.90
29813;DHT22;16707;48.106;11.548;2023-03-02T05:08:51;-1.40;99.90
29813;DHT22;16707;48.106;11.548;2023-03-02T05:11:19;-1.40;99.90
29813;DHT22;16707;48.106;11.548;2023-03-02T05:13:56;-1.40;99.90
29813;DHT22;16707;48.106;11.548;2023-03-02T05:16:24;-1.30;99.90
29813;DHT22;16707;48.106;11.548;2023-03-02T05:18:57;-1.40;99.90
29813;DHT22;16707;48.106;11.548;2023-03-02T05:21:26;-1.40;99.90
29813;DHT22;16707;48.106;11.548;2023-03-02T05:23:57;-1.40;99.90
29813;DHT22;16707;48.106;11.548;2023-03-02T05:26:25;-1.50;99.90
29813;DHT22;16707;48.106;11.548;2023-03-02T05:28:55;-1.50;99.90
29813;DHT22;16707;48.106;11.548;2023-03-02T05:31:23;-1.50;99.90
29813;DHT22;16707;48.106;11.548;2023-03-02T05:33:54;-1.40;99.90
29813;DHT22;16707;48.106;11.548;2023-03-02T05:36:23;-1.50;99.90
29813;DHT22;16707;48.106;11.548;2023-03-02T05:38:54;-1.50;99.90
29813;DHT22;16707;48.106;11.548;2023-03-02T05:41:22;-1.50;99.90
29813;DHT22;16707;48.106;11.548;2023-03-02T05:43:51;-1.50;99.90
29813;DHT22;16707;48.106;11.548;2023-03-02T05:46:20;-1.50;99.90
29813;DHT22;16707;48.106;11.548;2023-03-02T05:48:48;-1.50;99.90
29813;DHT22;16707;48.106;11.548;2023-03-02T05:51:17;-1.50;99.90
29813;DHT22;16707;48.106;11.548;2023-03-02T05:53:48;-1.50;99.90
29813;DHT22;16707;48.106;11.548;2023-03-02T05:56:17;-1.40;99.90
29813;DHT22;16707;48.106;11.548;2023-03-02T05:58:45;-1.40;99.90
29813;DHT22;16707;48.106;11.548;2023-03-02T06:01:15;-1.30;99.90
29813;DHT22;16707;48.106;11.548;2023-03-02T06:03:42;-1.20;99.90
29813;DHT22;16707;48.106;11.548;2023-03-02T06:06:10;-1.20;99.90
29813;DHT22;16707;48.106;11.548;2023-03-02T06:08:41;-1.20;99.90
29813;DHT22;16707;48.106;11.548;2023-03-02T06:11:09;-1.10;99.90
29813;DHT22;16707;48.106;11.548;2023-03-02T06:13:38;-1.10;99.90
29813;DHT22;16707;48.106;11.548;2023-03-02T06:16:08;-1.00;99.90
29813;DHT22;16707;48.106;11.548;2023-03-02T06:18:39;-1.00;99.90
29813;DHT22;16707;48.106;11.548;2023-03-02T06:21:06;-0.90;99.90
29813;DHT22;16707;48.106;11.548;2023-03-02T06:23:33;-0.80;99.90
29813;DHT22;16707;48.106;11.548;2023-03-02T06:26:07;-0.70;99.90
29813;DHT22;16707;48.106;11.548;2023-03-02T06:28:34;-0.60;99.90
29813;DHT22;16707;48.106;11.548;2023-03-02T06:31:04;-0.50;99.90
29813;DHT22;16707;48.106;11.548;2023-03-02T06:33:32;-0.40;99.90
29813;DHT22;16707;48.106;11.548;2023-03-02T06:36:02;-0.10;99.90
29813;DHT22;16707;48.106;11.548;2023-03-02T06:38:31;0.00;99.90
29813;DHT22;16707;48.106;11.548;2023-03-02T06:40:58;0.10;99.90
29813;DHT22;16707;48.106;11.548;2023-03-02T06:43:25;0.30;99.90
29813;DHT22;16707;48.106;11.548;2023-03-02T06:45:55;0.30;99.90
29813;DHT22;16707;48.106;11.548;2023-03-02T06:48:26;0.40;99.90
29813;DHT22;16707;48.106;11.548;2023-03-02T06:50:53;0.40;99.90
29813;DHT22;16707;48.106;11.548;2023-03-02T06:53:23;0.60;99.90
29813;DHT22;16707;48.106;11.548;2023-03-02T06:55:50;0.60;99.90
29813;DHT22;16707;48.106;11.548;2023-03-02T06:58:18;0.80;99.90
29813;DHT22;16707;48.106;11.548;2023-03-02T07:01:03;0.90;99.90
29813;DHT22;16707;48.106;11.548;2023-03-02T07:03:33;1.10;99.90
29813;DHT22;16707;48.106;11.548;2023-03-02T07:06:01;1.20;99.90
29813;DHT22;16707;48.106;11.548;2023-03-02T07:08:31;1.30;99.90
29813;DHT22;16707;48.106;11.548;2023-03-02T07:11:04;1.40;99.90
29813;DHT22;16707;48.106;11.548;2023-03-02T07:13:33;1.60;99.90
29813;DHT22;16707;48.106;11.548;2023-03-02T07:16:06;1.80;99.90
29813;DHT22;16707;48.106;11.548;2023-03-02T07:18:37;1.80;99.90
29813;DHT22;16707;48.106;11.548;2023-03-02T07:21:05;2.00;99.90
29813;DHT22;16707;48.106;11.548;2023-03-02T07:23:32;2.00;99.90
29813;DHT22;16707;48.106;11.548;2023-03-02T07:25:59;2.20;99.90
29813;DHT22;16707;48.106;11.548;2023-03-02T07:28:26;2.20;99.90
29813;DHT22;16707;48.106;11.548;2023-03-02T07:30:54;2.20;99.90
29813;DHT22;16707;48.106;11.548;2023-03-02T07:33:21;2.40;99.90
29813;DHT22;16707;48.106;11.548;2023-03-02T07:35:50;2.60;99.90
29813;DHT22;16707;48.106;11.548;2023-03-02T07:38:17;2.40;99.90
29813;DHT22;16707;48.106;11.548;2023-03-02T07:40:44;2.70;99.90
29813;DHT22;16707;48.106;11.548;2023-03-02T07:43:16;2.70;99.90
29813;DHT22;16707;48.106;11.548;2023-03-02T07:45:44;2.80;99.90
29813;DHT22;16707;48.106;11.548;2023-03-02T07:48:11;2.90;99.90
29813;DHT22;16707;48.106;11.548;2023-03-02T07:50:41;3.10;99.90
29813;DHT22;16707;48.106;11.548;2023-03-02T07:53:11;3.40;99.90
29813;DHT22;16707;48.106;11.548;2023-03-02T07:55:41;3.50;99.90
29813;DHT22;16707;48.106;11.548;2023-03-02T07:58:09;3.60;99.90
29813;DHT22;16707;48.106;11.548;2023-03-02T08:00:36;3.80;99.90
29813;DHT22;16707;48.106;11.548;2023-03-02T08:03:04;3.70;99.90
29813;DHT22;16707;48.106;11.548;2023-03-02T08:05:37;3.70;99.90
29813;DHT22;16707;48.106;11.548;2023-03-02T08:08:06;3.80;99.90
29813;DHT22;16707;48.106;11.548;2023-03-02T08:10:35;3.90;99.90
29813;DHT22;16707;48.106;11.548;2023-03-02T08:13:02;4.20;99.90
29813;DHT22;16707;48.106;11.548;2023-03-02T08:15:33;4.10;99.90
29813;DHT22;16707;48.106;11.548;2023-03-02T08:18:00;3.90;99.90
29813;DHT22;16707;48.106;11.548;2023-03-02T08:20:27;4.00;99.90
29813;DHT22;16707;48.106;11.548;2023-03-02T08:22:54;4.00;99.90
29813;DHT22;16707;48.106;11.548;2023-03-02T08:25:21;3.90;99.90
29813;DHT22;16707;48.106;11.548;2023-03-02T08:27:49;4.10;99.90
29813;DHT22;16707;48.106;11.548;2023-03-02T08:30:16;4.60;99.90
29813;DHT22;16707;48.106;11.548;2023-03-02T08:32:43;4.80;99.90
29813;DHT22;16707;48.106;11.548;2023-03-02T08:35:18;5.00;99.90
29813;DHT22;16707;48.106;11.548;2023-03-02T08:37:47;5.00;99.80
29813;DHT22;16707;48.106;11.548;2023-03-02T08:40:14;5.10;98.80
29813;DHT22;16707;48.106;11.548;2023-03-02T08:42:41;4.80;99.90
29813;DHT22;16707;48.106;11.548;2023-03-02T08:45:10;5.10;99.30
29813;DHT22;16707;48.106;11.548;2023-03-02T08:47:40;5.20;98.70
29813;DHT22;16707;48.106;11.548;2023-03-02T08:50:08;5.20;97.90
29813;DHT22;16707;48.106;11.548;2023-03-02T08:52:38;4.90;98.30
29813;DHT22;16707;48.106;11.548;2023-03-02T08:55:06;4.80;99.60
29813;DHT22;16707;48.106;11.548;2023-03-02T08:57:34;4.80;99.50
29813;DHT22;16707;48.106;11.548;2023-03-02T09:00:00;4.70;99.60
29813;DHT22;16707;48.106;11.548;2023-03-02T09:02:29;5.00;99.00
29813;DHT22;16707;48.106;11.548;2023-03-02T09:04:58;5.10;98.50
29813;DHT22;16707;48.106;11.548;2023-03-02T09:07:25;4.90;98.50
29813;DHT22;16707;48.106;11.548;2023-03-02T09:09:52;5.20;98.40
29813;DHT22;16707;48.106;11.548;2023-03-02T09:12:19;4.80;98.00
29813;DHT22;16707;48.106;11.548;2023-03-02T09:14:46;4.70;99.30
29813;DHT22;16707;48.106;11.548;2023-03-02T09:17:13;4.80;99.90
29813;DHT22;16707;48.106;11.548;2023-03-02T09:19:43;4.90;99.60
29813;DHT22;16707;48.106;11.548;2023-03-02T09:22:10;5.00;99.10
29813;DHT22;16707;48.106;11.548;2023-03-02T09:24:37;5.20;98.30
29813;DHT22;16707;48.106;11.548;2023-03-02T09:27:04;5.30;97.90
29813;DHT22;16707;48.106;11.548;2023-03-02T09:29:31;5.40;98.50
29813;DHT22;16707;48.106;11.548;2023-03-02T09:31:57;5.40;97.60
29813;DHT22;16707;48.106;11.548;2023-03-02T09:34:24;5.20;98.00
29813;DHT22;16707;48.106;11.548;2023-03-02T09:36:53;5.40;98.30
29813;DHT22;16707;48.106;11.548;2023-03-02T09:39:20;5.40;97.70
29813;DHT22;16707;48.106;11.548;2023-03-02T09:42:14;5.60;97.70
29813;DHT22;16707;48.106;11.548;2023-03-02T09:45:08;5.90;97.40
29813;DHT22;16707;48.106;11.548;2023-03-02T09:47:44;5.80;96.00
29813;DHT22;16707;48.106;11.548;2023-03-02T09:50:26;5.60;96.50
29813;DHT22;16707;48.106;11.548;2023-03-02T09:53:08;5.60;97.50
29813;DHT22;16707;48.106;11.548;2023-03-02T09:55:43;5.80;96.70
29813;DHT22;16707;48.106;11.548;2023-03-02T09:58:14;6.00;96.40
29813;DHT22;16707;48.106;11.548;2023-03-02T10:00:43;5.90;96.30
29813;DHT22;16707;48.106;11.548;2023-03-02T10:03:15;6.20;96.10
29813;DHT22;16707;48.106;11.548;2023-03-02T10:05:45;6.30;96.00
29813;DHT22;16707;48.106;11.548;2023-03-02T10:08:17;6.40;95.20
29813;DHT22;16707;48.106;11.548;2023-03-02T10:10:51;6.50;95.20
29813;DHT22;16707;48.106;11.548;2023-03-02T10:13:24;6.70;94.90
29813;DHT22;16707;48.106;11.548;2023-03-02T10:16:02;6.90;94.30
29813;DHT22;16707;48.106;11.548;2023-03-02T10:18:37;7.00;93.90
29813;DHT22;16707;48.106;11.548;2023-03-02T10:21:08;7.20;93.00
29813;DHT22;16707;48.106;11.548;2023-03-02T10:23:43;7.20;92.80
29813;DHT22;16707;48.106;11.548;2023-03-02T10:26:18;7.10;92.40
29813;DHT22;16707;48.106;11.548;2023-03-02T10:28:48;7.10;92.70
29813;DHT22;16707;48.106;11.548;2023-03-02T10:31:23;7.10;92.90
29813;DHT22;16707;48.106;11.548;2023-03-02T10:33:51;7.20;93.30
29813;DHT22;16707;48.106;11.548;2023-03-02T10:36:23;7.40;92.50
29813;DHT22;16707;48.106;11.548;2023-03-02T10:38:54;7.60;91.60
29813;DHT22;16707;48.106;11.548;2023-03-02T10:41:25;7.80;91.20
29813;DHT22;16707;48.106;11.548;2023-03-02T10:43:56;7.90;90.50
29813;DHT22;16707;48.106;11.548;2023-03-02T10:46:24;7.90;90.30
29813;DHT22;16707;48.106;11.548;2023-03-02T10:48:55;7.90;90.90
29813;DHT22;16707;48.106;11.548;2023-03-02T10:51:26;8.00;90.30
29813;DHT22;16707;48.106;11.548;2023-03-02T10:54:06;8.00;90.40
29813;DHT22;16707;48.106;11.548;2023-03-02T10:56:35;8.30;89.90
29813;DHT22;16707;48.106;11.548;2023-03-02T10:59:13;8.40;89.60
29813;DHT22;16707;48.106;11.548;2023-03-02T11:01:57;8.60;89.20
29813;DHT22;16707;48.106;11.548;2023-03-02T11:04:26;8.70;88.20
29813;DHT22;16707;48.106;11.548;2023-03-02T11:06:53;8.80;86.80
29813;DHT22;16707;48.106;11.548;2023-03-02T11:09:22;8.90;86.40
29813;DHT22;16707;48.106;11.548;2023-03-02T11:11:52;8.90;85.90
29813;DHT22;16707;48.106;11.548;2023-03-02T11:14:19;9.10;85.60
29813;DHT22;16707;48.106;11.548;2023-03-02T11:16:47;8.90;84.60
29813;DHT22;16707;48.106;11.548;2023-03-02T11:19:21;8.80;85.60
29813;DHT22;16707;48.106;11.548;2023-03-02T11:21:56;8.60;86.70
29813;DHT22;16707;48.106;11.548;2023-03-02T11:24:34;8.80;86.90
29813;DHT22;16707;48.106;11.548;2023-03-02T11:27:06;8.70;84.80
29813;DHT22;16707;48.106;11.548;2023-03-02T11:29:38;8.50;86.20
29813;DHT22;16707;48.106;11.548;2023-03-02T11:32:11;8.40;87.30
29813;DHT22;16707;48.106;11.548;2023-03-02T11:34:43;8.40;86.80
29813;DHT22;16707;48.106;11.548;2023-03-02T11:37:16;8.50;87.30
29813;DHT22;16707;48.106;11.548;2023-03-02T11:39:56;8.70;87.00
29813;DHT22;16707;48.106;11.548;2023-03-02T11:42:29;8.80;86.60
29813;DHT22;16707;48.106;11.548;2023-03-02T11:45:01;8.90;86.60
29813;DHT22;16707;48.106;11.548;2023-03-02T11:47:30;9.20;85.40
29813;DHT22;16707;48.106;11.548;2023-03-02T11:50:00;9.40;83.90
29813;DHT22;16707;48.106;11.548;2023-03-02T11:52:31;9.50;83.20
29813;DHT22;16707;48.106;11.548;2023-03-02T11:55:17;9.30;82.30
29813;DHT22;16707;48.106;11.548;2023-03-02T11:57:49;9.30;82.90
29813;DHT22;16707;48.106;11.548;2023-03-02T12:00:27;9.30;83.90
29813;DHT22;16707;48.106;11.548;2023-03-02T12:03:00;9.40;83.50
29813;DHT22;16707;48.106;11.548;2023-03-02T12:05:29;9.70;82.60
29813;DHT22;16707;48.106;11.548;2023-03-02T12:08:00;10.00;81.40
29813;DHT22;16707;48.106;11.548;2023-03-02T12:10:39;10.30;79.30
29813;DHT22;16707;48.106;11.548;2023-03-02T12:13:17;10.20;78.20
29813;DHT22;16707;48.106;11.548;2023-03-02T12:15:46;10.10;77.60
29813;DHT22;16707;48.106;11.548;2023-03-02T12:18:43;10.30;77.30
29813;DHT22;16707;48.106;11.548;2023-03-02T12:21:13;10.30;77.30
29813;DHT22;16707;48.106;11.548;2023-03-02T12:23:58;10.00;77.40
29813;DHT22;16707;48.106;11.548;2023-03-02T12:26:34;10.00;78.40
29813;DHT22;16707;48.106;11.548;2023-03-02T12:29:06;10.10;79.40
29813;DHT22;16707;48.106;11.548;2023-03-02T12:31:41;10.40;78.30
29813;DHT22;16707;48.106;11.548;2023-03-02T12:34:27;10.60;76.30
29813;DHT22;16707;48.106;11.548;2023-03-02T12:37:01;10.60;74.50
29813;DHT22;16707;48.106;11.548;2023-03-02T12:40:08;10.30;75.50
29813;DHT22;16707;48.106;11.548;2023-03-02T12:42:54;10.30;75.80
29813;DHT22;16707;48.106;11.548;2023-03-02T12:45:44;10.50;76.40
29813;DHT22;16707;48.106;11.548;2023-03-02T12:48:23;10.60;75.50
29813;DHT22;16707;48.106;11.548;2023-03-02T12:50:55;10.60;74.40
29813;DHT22;16707;48.106;11.548;2023-03-02T12:53:26;10.40;74.90
29813;DHT22;16707;48.106;11.548;2023-03-02T12:55:53;10.50;74.60
29813;DHT22;16707;48.106;11.548;2023-03-02T12:58:23;10.80;73.90
29813;DHT22;16707;48.106;11.548;2023-03-02T13:00:54;10.80;73.60
29813;DHT22;16707;48.106;11.548;2023-03-02T13:03:22;10.70;73.10
29813;DHT22;16707;48.106;11.548;2023-03-02T13:06:00;10.70;74.80
29813;DHT22;16707;48.106;11.548;2023-03-02T13:08:28;10.70;74.90
29813;DHT22;16707;48.106;11.548;2023-03-02T13:10:57;10.80;74.10
29813;DHT22;16707;48.106;11.548;2023-03-02T13:13:34;11.10;73.50
29813;DHT22;16707;48.106;11.548;2023-03-02T13:16:04;11.20;71.60
29813;DHT22;16707;48.106;11.548;2023-03-02T13:18:35;11.20;71.10
29813;DHT22;16707;48.106;11.548;2023-03-02T13:21:05;11.10;71.80
29813;DHT22;16707;48.106;11.548;2023-03-02T13:23:33;11.30;71.60
29813;DHT22;16707;48.106;11.548;2023-03-02T13:26:02;11.20;71.00
29813;DHT22;16707;48.106;11.548;2023-03-02T13:28:34;11.40;71.00
29813;DHT22;16707;48.106;11.548;2023-03-02T13:31:04;11.40;70.80
29813;DHT22;16707;48.106;11.548;2023-03-02T13:33:33;11.40;70.30
29813;DHT22;16707;48.106;11.548;2023-03-02T13:36:01;11.30;70.80
29813;DHT22;16707;48.106;11.548;2023-03-02T13:38:33;11.50;70.70
29813;DHT22;16707;48.106;11.548;2023-03-02T13:41:01;11.50;69.60
29813;DHT22;16707;48.106;11.548;2023-03-02T13:43:38;11.30;69.50
29813;DHT22;16707;48.106;11.548;2023-03-02T13:46:25;11.50;69.00
29813;DHT22;16707;48.106;11.548;2023-03-02T13:48:53;11.30;70.40
29813;DHT22;16707;48.106;11.548;2023-03-02T13:51:21;11.30;70.60
29813;DHT22;16707;48.106;11.548;2023-03-02T13:53:54;11.30;71.30
29813;DHT22;16707;48.106;11.548;2023-03-02T13:56:26;11.60;70.20
29813;DHT22;16707;48.106;11.548;2023-03-02T13:58:55;11.70;69.00
29813;DHT22;16707;48.106;11.548;2023-03-02T14:01:22;11.60;69.80
29813;DHT22;16707;48.106;11.548;2023-03-02T14:03:53;11.50;70.00
29813;DHT22;16707;48.106;11.548;2023-03-02T14:06:22;11.60;69.50
29813;DHT22;16707;48.106;11.548;2023-03-02T14:08:50;11.60;72.40
29813;DHT22;16707;48.106;11.548;2023-03-02T14:11:17;11.50;73.90
29813;DHT22;16707;48.106;11.548;2023-03-02T14:13:48;11.40;74.70
29813;DHT22;16707;48.106;11.548;2023-03-02T14:16:20;11.20;75.00
29813;DHT22;16707;48.106;11.548;2023-03-02T14:18:51;11.10;75.40
29813;DHT22;16707;48.106;11.548;2023-03-02T14:21:22;11.00;76.10
29813;DHT22;16707;48.106;11.548;2023-03-02T14:23:50;10.90;76.60
29813;DHT22;16707;48.106;11.548;2023-03-02T14:26:36;10.80;76.50
29813;DHT22;16707;48.106;11.548;2023-03-02T14:29:13;10.60;76.90
29813;DHT22;16707;48.106;11.548;2023-03-02T14:31:47;10.40;78.30
29813;DHT22;16707;48.106;11.548;2023-03-02T14:34:15;10.30;78.70
29813;DHT22;16707;48.106;11.548;2023-03-02T14:36:43;10.10;79.40
29813;DHT22;16707;48.106;11.548;2023-03-02T14:39:19;10.10;80.20
29813;DHT22;16707;48.106;11.548;2023-03-02T14:41:47;10.00;81.20
29813;DHT22;16707;48.106;11.548;2023-03-02T14:44:14;9.80;82.40
29813;DHT22;16707;48.106;11.548;2023-03-02T14:46:41;9.70;82.20
29813;DHT22;16707;48.106;11.548;2023-03-02T14:49:10;9.80;83.00
29813;DHT22;16707;48.106;11.548;2023-03-02T14:51:39;9.80;82.70
29813;DHT22;16707;48.106;11.548;2023-03-02T14:54:09;9.70;83.40
29813;DHT22;16707;48.106;11.548;2023-03-02T14:56:38;9.70;83.70
29813;DHT22;16707;48.106;11.548;2023-03-02T14:59:08;9.50;83.70
29813;DHT22;16707;48.106;11.548;2023-03-02T15:01:38;9.40;84.30
29813;DHT22;16707;48.106;11.548;2023-03-02T15:04:05;9.40;85.40
29813;DHT22;16707;48.106;11.548;2023-03-02T15:06:37;9.30;85.70
29813;DHT22;16707;48.106;11.548;2023-03-02T15:09:05;9.20;85.90
29813;DHT22;16707;48.106;11.548;2023-03-02T15:11:33;9.20;86.60
29813;DHT22;16707;48.106;11.548;2023-03-02T15:14:00;9.10;87.00
29813;DHT22;16707;48.106;11.548;2023-03-02T15:16:27;9.10;87.00
29813;DHT22;16707;48.106;11.548;2023-03-02T15:18:54;9.10;87.50
29813;DHT22;16707;48.106;11.548;2023-03-02T15:21:23;8.90;87.70
29813;DHT22;16707;48.106;11.548;2023-03-02T15:23:51;8.70;88.30
29813;DHT22;16707;48.106;11.548;2023-03-02T15:26:18;8.60;89.20
29813;DHT22;16707;48.106;11.548;2023-03-02T15:28:50;8.50;90.20
29813;DHT22;16707;48.106;11.548;2023-03-02T15:31:18;8.50;90.00
29813;DHT22;16707;48.106;11.548;2023-03-02T15:33:46;8.40;90.30
29813;DHT22;16707;48.106;11.548;2023-03-02T15:36:15;8.10;90.90
29813;DHT22;16707;48.106;11.548;2023-03-02T15:38:43;8.10;91.40
29813;DHT22;16707;48.106;11.548;2023-03-02T15:41:12;7.90;91.80
29813;DHT22;16707;48.106;11.548;2023-03-02T15:43:39;7.70;92.30
29813;DHT22;16707;48.106;11.548;2023-03-02T15:46:07;7.60;92.60
29813;DHT22;16707;48.106;11.548;2023-03-02T15:48:35;7.50;93.20